sensor_id;sensor_type;location;lat;lon;timestamp;pressure;altitude;pressure_sealevel;temperature;humidity
45129;BME280;35512;56.312;101.728;2023-01-08T00:02:06;96640.06;;;-16.56;77.70
45129;BME280;35512;56.312;101.728;2023-01-08T00:04:35;96643.06;;;-16.52;77.62
45129;BME280;35512;56.312;101.728;2023-01-08T00:07:04;96641.09;;;-16.50;77.79
45129;BME280;35512;56.312;101.728;2023-01-08T00:09:33;96640.19;;;-16.42;77.81
45129;BME280;35512;56.312;101.728;2023-01-08T00:12:02;96630.63;;;-16.42;77.71
45129;BME280;35512;56.312;101.728;2023-01-08T00:14:31;96640.03;;;-16.34;77.57
45129;BME280;35512;56.312;101.728;2023-01-08T00:17:00;96633.06;;;-16.34;77.87
45129;BME280;35512;56.312;101.728;2023-01-08T00:19:30;96638.50;;;-16.28;77.51
45129;BME280;35512;56.312;101.728;2023-01-08T00:21:59;96643.28;;;-16.25;77.93
45129;BME280;35512;56.312;101.728;2023-01-08T00:24:27;96641.13;;;-16.22;77.80
45129;BME280;35512;56.312;101.728;2023-01-08T00:26:56;96643.34;;;-16.19;77.97
45129;BME280;35512;56.312;101.728;2023-01-08T00:29:25;96643.78;;;-16.15;77.79
45129;BME280;35512;56.312;101.728;2023-01-08T00:31:54;96657.31;;;-16.13;77.72
45129;BME280;35512;56.312;101.728;2023-01-08T00:34:23;96655.69;;;-16.14;77.71
45129;BME280;35512;56.312;101.728;2023-01-08T00:36:52;96647.94;;;-16.14;77.87
45129;BME280;35512;56.312;101.728;2023-01-08T00:39:21;96654.16;;;-16.08;77.81
45129;BME280;35512;56.312;101.728;2023-01-08T00:41:50;96647.81;;;-16.06;77.80
45129;BME280;35512;56.312;101.728;2023-01-08T00:44:18;96646.88;;;-15.98;78.39
45129;BME280;35512;56.312;101.728;2023-01-08T00:46:47;96644.91;;;-15.96;78.21
45129;BME280;35512;56.312;101.728;2023-01-08T00:49:16;96645.50;;;-15.94;78.19
45129;BME280;35512;56.312;101.728;2023-01-08T00:51:45;96653.94;;;-15.85;77.82
45129;BME280;35512;56.312;101.728;2023-01-08T00:54:14;96648.38;;;-15.82;78.34
45129;BME280;35512;56.312;101.728;2023-01-08T00:56:43;96651.22;;;-15.70;78.05
45129;BME280;35512;56.312;101.728;2023-01-08T00:59:12;96651.84;;;-15.61;78.17
45129;BME280;35512;56.312;101.728;2023-01-08T01:01:41;96660.25;;;-15.53;78.55
45129;BME280;35512;56.312;101.728;2023-01-08T01:04:11;96659.69;;;-15.48;78.66
45129;BME280;35512;56.312;101.728;2023-01-08T01:06:41;96656.13;;;-15.40;78.04
45129;BME280;35512;56.312;101.728;2023-01-08T01:09:10;96654.41;;;-15.33;78.22
45129;BME280;35512;56.312;101.728;2023-01-08T01:11:39;96653.22;;;-15.31;77.99
45129;BME280;35512;56.312;101.728;2023-01-08T01:14:08;96651.63;;;-15.25;78.21
45129;BME280;35512;56.312;101.728;2023-01-08T01:16:37;96656.81;;;-15.25;78.21
45129;BME280;35512;56.312;101.728;2023-01-08T01:19:09;96652.44;;;-15.24;78.10
45129;BME280;35512;56.312;101.728;2023-01-08T01:21:38;96651.63;;;-15.25;78.15
45129;BME280;35512;56.312;101.728;2023-01-08T01:24:08;96655.03;;;-15.24;78.20
45129;BME280;35512;56.312;101.728;2023-01-08T01:26:38;96654.81;;;-15.23;78.19
45129;BME280;35512;56.312;101.728;2023-01-08T01:29:07;96657.06;;;-15.20;78.15
45129;BME280;35512;56.312;101.728;2023-01-08T01:31:36;96657.06;;;-15.20;78.33
45129;BME280;35512;56.312;101.728;2023-01-08T01:34:05;96644.66;;;-15.24;78.26
45129;BME280;35512;56.312;101.728;2023-01-08T01:36:34;96647.88;;;-15.22;78.07
45129;BME280;35512;56.312;101.728;2023-01-08T01:39:03;96648.06;;;-15.24;78.15
45129;BME280;35512;56.312;101.728;2023-01-08T01:41:41;96650.06;;;-15.19;78.57
45129;BME280;35512;56.312;101.728;2023-01-08T01:44:37;96641.69;;;-15.15;78.13
45129;BME280;35512;56.312;101.728;2023-01-08T01:50:16;96645.91;;;-15.14;78.49
45129;BME280;35512;56.312;101.728;2023-01-08T01:53:11;96641.13;;;-15.10;78.21
45129;BME280;35512;56.312;101.728;2023-01-08T01:55:42;96639.13;;;-15.08;78.27
45129;BME280;35512;56.312;101.728;2023-01-08T01:58:15;96646.75;;;-15.00;78.68
45129;BME280;35512;56.312;101.728;2023-01-08T02:00:45;96645.00;;;-14.86;78.53
45129;BME280;35512;56.312;101.728;2023-01-08T02:03:15;96642.63;;;-14.74;78.70
45129;BME280;35512;56.312;101.728;2023-01-08T02:06:03;96648.81;;;-14.62;78.37
45129;BME280;35512;56.312;101.728;2023-01-08T02:11:15;96633.06;;;-14.40;78.30
45129;BME280;35512;56.312;101.728;2023-01-08T02:13:50;96635.09;;;-14.35;78.41
45129;BME280;35512;56.312;101.728;2023-01-08T02:16:29;96626.28;;;-14.34;78.19
45129;BME280;35512;56.312;101.728;2023-01-08T02:19:13;96627.91;;;-14.26;78.57
45129;BME280;35512;56.312;101.728;2023-01-08T02:26:58;96625.50;;;-14.01;78.92
45129;BME280;35512;56.312;101.728;2023-01-08T02:29:30;96606.72;;;-13.90;78.72
45129;BME280;35512;56.312;101.728;2023-01-08T02:32:01;96610.06;;;-13.63;78.96
45129;BME280;35512;56.312;101.728;2023-01-08T02:34:29;96614.13;;;-13.35;79.15
45129;BME280;35512;56.312;101.728;2023-01-08T02:37:00;96599.34;;;-13.34;78.51
45129;BME280;35512;56.312;101.728;2023-01-08T02:45:01;96597.09;;;-13.69;78.39
45129;BME280;35512;56.312;101.728;2023-01-08T02:47:38;96599.50;;;-13.81;78.60
45129;BME280;35512;56.312;101.728;2023-01-08T02:52:49;96606.50;;;-13.88;78.76
45129;BME280;35512;56.312;101.728;2023-01-08T02:55:25;96590.38;;;-13.97;78.99
45129;BME280;35512;56.312;101.728;2023-01-08T02:57:56;96604.50;;;-13.86;79.11
45129;BME280;35512;56.312;101.728;2023-01-08T03:00:27;96609.88;;;-13.81;78.76
45129;BME280;35512;56.312;101.728;2023-01-08T03:03:13;96601.50;;;-13.77;79.19
45129;BME280;35512;56.312;101.728;2023-01-08T03:05:47;96602.88;;;-13.67;79.13
45129;BME280;35512;56.312;101.728;2023-01-08T03:08:18;96600.63;;;-13.50;79.44
45129;BME280;35512;56.312;101.728;2023-01-08T03:10:55;96596.53;;;-13.26;79.46
45129;BME280;35512;56.312;101.728;2023-01-08T03:13:31;96585.63;;;-13.03;79.48
45129;BME280;35512;56.312;101.728;2023-01-08T03:16:14;96571.16;;;-12.92;79.47
45129;BME280;35512;56.312;101.728;2023-01-08T03:18:58;96560.16;;;-12.94;79.06
45129;BME280;35512;56.312;101.728;2023-01-08T03:21:30;96558.28;;;-13.12;78.72
45129;BME280;35512;56.312;101.728;2023-01-08T03:23:59;96565.50;;;-13.21;78.42
45129;BME280;35512;56.312;101.728;2023-01-08T03:26:31;96561.56;;;-13.30;78.85
45129;BME280;35512;56.312;101.728;2023-01-08T03:29:01;96556.94;;;-13.28;78.75
45129;BME280;35512;56.312;101.728;2023-01-08T03:31:31;96553.75;;;-13.23;79.15
45129;BME280;35512;56.312;101.728;2023-01-08T03:34:04;96546.91;;;-13.18;79.16
45129;BME280;35512;56.312;101.728;2023-01-08T03:36:35;96554.28;;;-13.15;79.02
45129;BME280;35512;56.312;101.728;2023-01-08T03:39:15;96544.31;;;-13.18;78.85
45129;BME280;35512;56.312;101.728;2023-01-08T03:41:45;96537.09;;;-13.16;79.25
45129;BME280;35512;56.312;101.728;2023-01-08T03:44:15;96519.28;;;-13.12;79.49
45129;BME280;35512;56.312;101.728;2023-01-08T03:46:48;96520.00;;;-12.98;79.34
45129;BME280;35512;56.312;101.728;2023-01-08T03:49:20;96517.94;;;-12.89;79.26
45129;BME280;35512;56.312;101.728;2023-01-08T03:51:50;96526.72;;;-12.84;79.25
45129;BME280;35512;56.312;101.728;2023-01-08T03:54:24;96518.66;;;-12.76;79.17
45129;BME280;35512;56.312;101.728;2023-01-08T03:56:56;96518.38;;;-12.67;78.96
45129;BME280;35512;56.312;101.728;2023-01-08T03:59:25;96517.91;;;-12.58;79.66
45129;BME280;35512;56.312;101.728;2023-01-08T04:01:54;96520.41;;;-12.44;79.67
45129;BME280;35512;56.312;101.728;2023-01-08T04:04:24;96526.66;;;-12.27;79.54
45129;BME280;35512;56.312;101.728;2023-01-08T04:06:53;96525.72;;;-12.14;79.56
45129;BME280;35512;56.312;101.728;2023-01-08T04:09:22;96524.88;;;-12.08;79.18
45129;BME280;35512;56.312;101.728;2023-01-08T04:11:51;96518.84;;;-12.08;79.31
45129;BME280;35512;56.312;101.728;2023-01-08T04:14:19;96512.00;;;-12.02;79.04
45129;BME280;35512;56.312;101.728;2023-01-08T04:16:48;96507.88;;;-12.10;78.91
45129;BME280;35512;56.312;101.728;2023-01-08T04:19:17;96509.44;;;-12.09;78.88
45129;BME280;35512;56.312;101.728;2023-01-08T04:21:49;96504.41;;;-12.04;79.38
45129;BME280;35512;56.312;101.728;2023-01-08T04:24:19;96502.72;;;-11.98;79.10
45129;BME280;35512;56.312;101.728;2023-01-08T04:26:48;96499.94;;;-11.97;79.46
45129;BME280;35512;56.312;101.728;2023-01-08T04:29:16;96493.59;;;-11.89;79.30
45129;BME280;35512;56.312;101.728;2023-01-08T04:31:46;96487.53;;;-11.83;79.39
45129;BME280;35512;56.312;101.728;2023-01-08T04:34:15;96482.63;;;-11.91;79.15
45129;BME280;35512;56.312;101.728;2023-01-08T04:36:44;96483.63;;;-11.92;79.41
45129;BME280;35512;56.312;101.728;2023-01-08T04:39:13;96477.41;;;-11.91;79.13
45129;BME280;35512;56.312;101.728;2023-01-08T04:41:45;96475.66;;;-11.79;79.49
45129;BME280;35512;56.312;101.728;2023-01-08T04:44:14;96480.13;;;-11.67;79.77
45129;BME280;35512;56.312;101.728;2023-01-08T04:46:43;96472.75;;;-11.70;79.37
45129;BME280;35512;56.312;101.728;2023-01-08T04:49:12;96477.97;;;-11.70;79.63
45129;BME280;35512;56.312;101.728;2023-01-08T04:51:41;96471.22;;;-11.78;79.10
45129;BME280;35512;56.312;101.728;2023-01-08T04:54:10;96468.78;;;-11.92;79.13
45129;BME280;35512;56.312;101.728;2023-01-08T04:56:39;96460.28;;;-11.99;79.47
45129;BME280;35512;56.312;101.728;2023-01-08T04:59:08;96457.69;;;-11.99;79.48
45129;BME280;35512;56.312;101.728;2023-01-08T05:01:37;96460.88;;;-11.97;79.71
45129;BME280;35512;56.312;101.728;2023-01-08T05:04:10;96458.06;;;-11.83;79.74
45129;BME280;35512;56.312;101.728;2023-01-08T05:06:39;96455.38;;;-11.77;79.90
45129;BME280;35512;56.312;101.728;2023-01-08T05:09:08;96445.50;;;-11.56;80.31
45129;BME280;35512;56.312;101.728;2023-01-08T05:11:37;96445.69;;;-11.39;80.33
45129;BME280;35512;56.312;101.728;2023-01-08T05:14:06;96443.44;;;-11.35;80.12
45129;BME280;35512;56.312;101.728;2023-01-08T05:16:35;96438.56;;;-11.32;79.68
45129;BME280;35512;56.312;101.728;2023-01-08T05:19:04;96438.63;;;-11.20;79.54
45129;BME280;35512;56.312;101.728;2023-01-08T05:21:33;96427.16;;;-11.19;80.22
45129;BME280;35512;56.312;101.728;2023-01-08T05:24:02;96425.25;;;-11.12;79.89
45129;BME280;35512;56.312;101.728;2023-01-08T05:26:31;96420.81;;;-11.11;79.95
45129;BME280;35512;56.312;101.728;2023-01-08T05:29:00;96414.59;;;-11.10;79.79
45129;BME280;35512;56.312;101.728;2023-01-08T05:31:29;96415.81;;;-11.13;79.63
45129;BME280;35512;56.312;101.728;2023-01-08T05:33:58;96423.09;;;-11.15;79.92
45129;BME280;35512;56.312;101.728;2023-01-08T05:36:28;96419.34;;;-11.07;80.28
45129;BME280;35512;56.312;101.728;2023-01-08T05:38:58;96417.00;;;-10.97;80.43
45129;BME280;35512;56.312;101.728;2023-01-08T05:41:27;96414.41;;;-10.85;80.32
45129;BME280;35512;56.312;101.728;2023-01-08T05:43:56;96404.53;;;-10.83;79.74
45129;BME280;35512;56.312;101.728;2023-01-08T05:46:25;96406.34;;;-10.72;80.26
45129;BME280;35512;56.312;101.728;2023-01-08T05:48:54;96402.97;;;-10.60;80.29
45129;BME280;35512;56.312;101.728;2023-01-08T05:51:22;96398.97;;;-10.39;80.74
45129;BME280;35512;56.312;101.728;2023-01-08T05:53:51;96392.09;;;-10.16;80.76
45129;BME280;35512;56.312;101.728;2023-01-08T05:56:20;96396.34;;;-9.98;80.77
45129;BME280;35512;56.312;101.728;2023-01-08T05:58:53;96391.91;;;-9.98;80.21
45129;BME280;35512;56.312;101.728;2023-01-08T06:01:23;96383.44;;;-10.17;79.65
45129;BME280;35512;56.312;101.728;2023-01-08T06:03:55;96376.28;;;-10.39;80.03
45129;BME280;35512;56.312;101.728;2023-01-08T06:06:26;96379.84;;;-10.28;80.61
45129;BME280;35512;56.312;101.728;2023-01-08T06:08:55;96380.16;;;-10.24;80.37
45129;BME280;35512;56.312;101.728;2023-01-08T06:11:24;96378.13;;;-10.22;79.96
45129;BME280;35512;56.312;101.728;2023-01-08T06:13:53;96373.00;;;-10.17;80.60
45129;BME280;35512;56.312;101.728;2023-01-08T06:16:22;96357.66;;;-10.13;80.51
45129;BME280;35512;56.312;101.728;2023-01-08T06:18:51;96357.31;;;-10.05;80.52
45129;BME280;35512;56.312;101.728;2023-01-08T06:21:20;96361.63;;;-9.99;80.55
45129;BME280;35512;56.312;101.728;2023-01-08T06:23:48;96364.28;;;-9.94;80.72
45129;BME280;35512;56.312;101.728;2023-01-08T06:26:17;96361.78;;;-9.89;80.65
45129;BME280;35512;56.312;101.728;2023-01-08T06:28:46;96362.38;;;-9.87;80.32
45129;BME280;35512;56.312;101.728;2023-01-08T06:31:16;96358.75;;;-9.97;79.95
45129;BME280;35512;56.312;101.728;2023-01-08T06:33:45;96349.59;;;-10.12;80.32
45129;BME280;35512;56.312;101.728;2023-01-08T06:36:14;96358.25;;;-10.11;80.66
45129;BME280;35512;56.312;101.728;2023-01-08T06:38:43;96344.56;;;-10.02;80.98
45129;BME280;35512;56.312;101.728;2023-01-08T06:41:12;96335.41;;;-9.87;80.71
45129;BME280;35512;56.312;101.728;2023-01-08T06:43:41;96338.03;;;-9.87;80.58
45129;BME280;35512;56.312;101.728;2023-01-08T06:46:10;96334.25;;;-9.79;80.91
45129;BME280;35512;56.312;101.728;2023-01-08T06:48:39;96328.78;;;-9.78;80.51
45129;BME280;35512;56.312;101.728;2023-01-08T06:51:08;96332.06;;;-9.99;80.10
45129;BME280;35512;56.312;101.728;2023-01-08T06:53:37;96331.31;;;-10.12;80.34
45129;BME280;35512;56.312;101.728;2023-01-08T06:56:06;96337.34;;;-10.11;80.61
45129;BME280;35512;56.312;101.728;2023-01-08T06:58:39;96335.09;;;-10.20;80.50
45129;BME280;35512;56.312;101.728;2023-01-08T07:01:13;96333.50;;;-10.21;80.85
45129;BME280;35512;56.312;101.728;2023-01-08T07:03:43;96339.84;;;-10.16;81.06
45129;BME280;35512;56.312;101.728;2023-01-08T07:06:17;96344.81;;;-10.03;81.36
45129;BME280;35512;56.312;101.728;2023-01-08T07:08:48;96344.09;;;-9.98;81.14
45129;BME280;35512;56.312;101.728;2023-01-08T07:11:17;96332.53;;;-10.03;81.21
45129;BME280;35512;56.312;101.728;2023-01-08T07:13:46;96331.41;;;-10.07;80.57
45129;BME280;35512;56.312;101.728;2023-01-08T07:16:15;96329.94;;;-10.14;80.85
45129;BME280;35512;56.312;101.728;2023-01-08T07:18:44;96329.78;;;-10.25;80.66
45129;BME280;35512;56.312;101.728;2023-01-08T07:21:13;96335.22;;;-10.26;81.25
45129;BME280;35512;56.312;101.728;2023-01-08T07:23:42;96336.34;;;-10.22;81.38
45129;BME280;35512;56.312;101.728;2023-01-08T07:26:11;96335.22;;;-10.26;80.89
45129;BME280;35512;56.312;101.728;2023-01-08T07:28:40;96331.50;;;-10.30;81.31
45129;BME280;35512;56.312;101.728;2023-01-08T07:31:09;96329.31;;;-10.33;81.40
45129;BME280;35512;56.312;101.728;2023-01-08T07:33:38;96332.75;;;-10.33;81.35
45129;BME280;35512;56.312;101.728;2023-01-08T07:36:07;96327.78;;;-10.34;81.51
45129;BME280;35512;56.312;101.728;2023-01-08T07:38:37;96331.94;;;-10.33;81.28
45129;BME280;35512;56.312;101.728;2023-01-08T07:41:06;96325.38;;;-10.36;81.42
45129;BME280;35512;56.312;101.728;2023-01-08T07:43:35;96326.78;;;-10.45;81.34
45129;BME280;35512;56.312;101.728;2023-01-08T07:46:04;96319.09;;;-10.52;80.91
45129;BME280;35512;56.312;101.728;2023-01-08T07:48:33;96316.72;;;-10.65;81.09
45129;BME280;35512;56.312;101.728;2023-01-08T07:51:04;96308.47;;;-10.74;81.20
45129;BME280;35512;56.312;101.728;2023-01-08T07:53:34;96311.28;;;-10.76;81.13
45129;BME280;35512;56.312;101.728;2023-01-08T07:56:06;96309.81;;;-10.83;81.07
45129;BME280;35512;56.312;101.728;2023-01-08T07:58:36;96307.66;;;-10.87;81.39
45129;BME280;35512;56.312;101.728;2023-01-08T08:01:09;96311.19;;;-10.93;81.11
45129;BME280;35512;56.312;101.728;2023-01-08T08:03:39;96305.84;;;-10.98;81.16
45129;BME280;35512;56.312;101.728;2023-01-08T08:06:09;96302.69;;;-11.00;81.27
45129;BME280;35512;56.312;101.728;2023-01-08T08:08:37;96294.63;;;-11.10;81.12
45129;BME280;35512;56.312;101.728;2023-01-08T08:11:09;96281.94;;;-11.18;80.95
45129;BME280;35512;56.312;101.728;2023-01-08T08:13:38;96282.63;;;-11.23;80.97
45129;BME280;35512;56.312;101.728;2023-01-08T08:16:12;96275.56;;;-11.34;81.17
45129;BME280;35512;56.312;101.728;2023-01-08T08:18:41;96273.66;;;-11.39;81.22
45129;BME280;35512;56.312;101.728;2023-01-08T08:21:09;96276.59;;;-11.47;81.26
45129;BME280;35512;56.312;101.728;2023-01-08T08:23:38;96277.50;;;-11.53;81.15
45129;BME280;35512;56.312;101.728;2023-01-08T08:26:07;96274.56;;;-11.57;81.33
45129;BME280;35512;56.312;101.728;2023-01-08T08:28:36;96269.00;;;-11.61;81.24
45129;BME280;35512;56.312;101.728;2023-01-08T08:31:05;96269.00;;;-11.61;81.30
45129;BME280;35512;56.312;101.728;2023-01-08T08:33:34;96268.63;;;-11.64;81.04
45129;BME280;35512;56.312;101.728;2023-01-08T08:36:03;96264.56;;;-11.60;81.24
45129;BME280;35512;56.312;101.728;2023-01-08T08:38:32;96263.31;;;-11.58;81.17
45129;BME280;35512;56.312;101.728;2023-01-08T08:41:01;96259.25;;;-11.53;81.25
45129;BME280;35512;56.312;101.728;2023-01-08T08:43:30;96254.63;;;-11.51;81.23
45129;BME280;35512;56.312;101.728;2023-01-08T08:45:59;96260.97;;;-11.47;81.31
45129;BME280;35512;56.312;101.728;2023-01-08T08:48:28;96248.16;;;-11.49;81.56
45129;BME280;35512;56.312;101.728;2023-01-08T08:50:56;96244.75;;;-11.49;81.64
45129;BME280;35512;56.312;101.728;2023-01-08T08:53:26;96257.78;;;-11.49;81.21
45129;BME280;35512;56.312;101.728;2023-01-08T08:55:57;96248.94;;;-11.48;81.55
45129;BME280;35512;56.312;101.728;2023-01-08T08:58:26;96251.56;;;-11.48;81.64
45129;BME280;35512;56.312;101.728;2023-01-08T09:01:00;96233.41;;;-11.55;81.25
45129;BME280;35512;56.312;101.728;2023-01-08T09:03:31;96237.63;;;-11.54;81.17
45129;BME280;35512;56.312;101.728;2023-01-08T09:06:00;96244.84;;;-11.56;81.27
45129;BME280;35512;56.312;101.728;2023-01-08T09:08:29;96249.06;;;-11.55;81.48
45129;BME280;35512;56.312;101.728;2023-01-08T09:10:58;96244.06;;;-11.57;81.20
45129;BME280;35512;56.312;101.728;2023-01-08T09:13:27;96240.91;;;-11.59;81.40
45129;BME280;35512;56.312;101.728;2023-01-08T09:16:00;96250.88;;;-11.56;81.60
45129;BME280;35512;56.312;101.728;2023-01-08T09:18:29;96245.91;;;-11.57;81.78
45129;BME280;35512;56.312;101.728;2023-01-08T09:20:58;96244.84;;;-11.56;81.35
45129;BME280;35512;56.312;101.728;2023-01-08T09:23:32;96242.38;;;-11.51;81.49
45129;BME280;35512;56.312;101.728;2023-01-08T09:26:01;96238.28;;;-11.47;81.66
45129;BME280;35512;56.312;101.728;2023-01-08T09:28:32;96237.84;;;-11.44;81.50
45129;BME280;35512;56.312;101.728;2023-01-08T09:31:02;96236.81;;;-11.43;81.70
45129;BME280;35512;56.312;101.728;2023-01-08T09:33:31;96233.19;;;-11.42;81.55
45129;BME280;35512;56.312;101.728;2023-01-08T09:36:00;96235.00;;;-11.30;81.98
45129;BME280;35512;56.312;101.728;2023-01-08T09:38:29;96232.75;;;-11.27;81.58
45129;BME280;35512;56.312;101.728;2023-01-08T09:41:06;96233.09;;;-11.23;81.66
45129;BME280;35512;56.312;101.728;2023-01-08T09:43:41;96227.53;;;-11.15;81.49
45129;BME280;35512;56.312;101.728;2023-01-08T09:46:11;96228.44;;;-11.09;81.76
45129;BME280;35512;56.312;101.728;2023-01-08T09:48:42;96227.97;;;-11.06;81.73
45129;BME280;35512;56.312;101.728;2023-01-08T09:51:14;96228.06;;;-11.01;81.88
45129;BME280;35512;56.312;101.728;2023-01-08T09:53:44;96230.44;;;-10.99;81.81
45129;BME280;35512;56.312;101.728;2023-01-08T09:56:16;96229.44;;;-10.98;81.36
45129;BME280;35512;56.312;101.728;2023-01-08T09:58:51;96214.69;;;-11.05;81.95
45129;BME280;35512;56.312;101.728;2023-01-08T10:01:34;96219.09;;;-10.93;81.58
45129;BME280;35512;56.312;101.728;2023-01-08T10:06:48;96203.78;;;-10.90;81.64
45129;BME280;35512;56.312;101.728;2023-01-08T10:09:23;96209.88;;;-10.84;81.75
45129;BME280;35512;56.312;101.728;2023-01-08T10:11:56;96207.38;;;-10.79;81.69
45129;BME280;35512;56.312;101.728;2023-01-08T10:14:37;96185.47;;;-10.78;81.79
45129;BME280;35512;56.312;101.728;2023-01-08T10:17:16;96194.97;;;-10.72;82.18
45129;BME280;35512;56.312;101.728;2023-01-08T10:19:49;96200.06;;;-10.65;82.16
45129;BME280;35512;56.312;101.728;2023-01-08T10:22:21;96200.41;;;-10.61;82.11
45129;BME280;35512;56.312;101.728;2023-01-08T10:24:50;96196.31;;;-10.57;81.96
45129;BME280;35512;56.312;101.728;2023-01-08T10:27:22;96193.78;;;-10.52;82.09
45129;BME280;35512;56.312;101.728;2023-01-08T10:29:51;96178.44;;;-10.48;82.01
45129;BME280;35512;56.312;101.728;2023-01-08T10:32:30;96165.72;;;-10.45;82.30
45129;BME280;35512;56.312;101.728;2023-01-08T10:35:04;96157.41;;;-10.42;82.28
45129;BME280;35512;56.312;101.728;2023-01-08T10:37:38;96152.03;;;-10.35;82.49
45129;BME280;35512;56.312;101.728;2023-01-08T10:43:30;96150.84;;;-10.27;82.24
45129;BME280;35512;56.312;101.728;2023-01-08T10:46:06;96157.91;;;-10.28;82.37
45129;BME280;35512;56.312;101.728;2023-01-08T10:48:38;96161.16;;;-10.21;82.66
45129;BME280;35512;56.312;101.728;2023-01-08T10:51:23;96148.63;;;-10.19;82.20
45129;BME280;35512;56.312;101.728;2023-01-08T10:53:54;96152.91;;;-10.12;82.49
45129;BME280;35512;56.312;101.728;2023-01-08T10:56:25;96151.97;;;-10.06;82.31
45129;BME280;35512;56.312;101.728;2023-01-08T10:58:56;96154.56;;;-10.06;82.49
45129;BME280;35512;56.312;101.728;2023-01-08T11:01:29;96152.03;;;-10.01;82.47
45129;BME280;35512;56.312;101.728;2023-01-08T11:04:03;96142.16;;;-9.99;82.28
45129;BME280;35512;56.312;101.728;2023-01-08T11:06:35;96143.50;;;-9.96;82.27
45129;BME280;35512;56.312;101.728;2023-01-08T11:09:31;96136.47;;;-9.96;82.50
45129;BME280;35512;56.312;101.728;2023-01-08T11:12:00;96138.97;;;-10.01;82.35
45129;BME280;35512;56.312;101.728;2023-01-08T11:14:32;96137.97;;;-10.00;82.42
45129;BME280;35512;56.312;101.728;2023-01-08T11:17:09;96136.13;;;-9.99;82.66
45129;BME280;35512;56.312;101.728;2023-01-08T11:19:39;96127.03;;;-9.97;82.88
45129;BME280;35512;56.312;101.728;2023-01-08T11:22:20;96119.44;;;-9.98;82.83
45129;BME280;35512;56.312;101.728;2023-01-08T11:24:50;96121.09;;;-9.92;82.80
45129;BME280;35512;56.312;101.728;2023-01-08T11:29:51;96103.13;;;-9.89;82.68
45129;BME280;35512;56.312;101.728;2023-01-08T11:37:51;96109.69;;;-9.86;82.51
45129;BME280;35512;56.312;101.728;2023-01-08T11:40:49;96109.16;;;-9.88;82.47
45129;BME280;35512;56.312;101.728;2023-01-08T11:46:47;96100.81;;;-9.85;82.46
45129;BME280;35512;56.312;101.728;2023-01-08T12:04:24;96080.28;;;-9.76;82.88
45129;BME280;35512;56.312;101.728;2023-01-08T12:07:25;96066.75;;;-9.73;82.79
45129;BME280;35512;56.312;101.728;2023-01-08T12:10:09;96065.47;;;-9.71;82.89
45129;BME280;35512;56.312;101.728;2023-01-08T12:12:52;96056.34;;;-9.68;82.82
45129;BME280;35512;56.312;101.728;2023-01-08T12:18:34;96057.44;;;-9.64;83.00
45129;BME280;35512;56.312;101.728;2023-01-08T12:24:05;96055.72;;;-9.58;83.21
45129;BME280;35512;56.312;101.728;2023-01-08T12:29:45;96052.59;;;-9.55;83.23
45129;BME280;35512;56.312;101.728;2023-01-08T12:32:26;96052.13;;;-9.52;82.93
45129;BME280;35512;56.312;101.728;2023-01-08T12:42:50;96046.69;;;-9.45;83.21
45129;BME280;35512;56.312;101.728;2023-01-08T12:45:31;96037.59;;;-9.43;83.14
45129;BME280;35512;56.312;101.728;2023-01-08T12:48:18;96040.00;;;-9.36;82.91
45129;BME280;35512;56.312;101.728;2023-01-08T13:07:50;96017.25;;;-9.36;83.08
45129;BME280;35512;56.312;101.728;2023-01-08T13:10:33;96013.13;;;-9.31;83.12
45129;BME280;35512;56.312;101.728;2023-01-08T13:13:04;96010.25;;;-9.30;83.16
45129;BME280;35512;56.312;101.728;2023-01-08T13:15:33;96004.31;;;-9.25;83.42
45129;BME280;35512;56.312;101.728;2023-01-08T13:18:23;96003.31;;;-9.19;83.15
45129;BME280;35512;56.312;101.728;2023-01-08T13:20:57;95998.13;;;-9.14;83.50
45129;BME280;35512;56.312;101.728;2023-01-08T13:23:29;95991.13;;;-9.08;83.61
45129;BME280;35512;56.312;101.728;2023-01-08T13:26:00;95993.50;;;-9.07;83.34
45129;BME280;35512;56.312;101.728;2023-01-08T13:28:41;95992.25;;;-8.99;83.58
45129;BME280;35512;56.312;101.728;2023-01-08T13:33:52;96003.03;;;-8.95;83.28
45129;BME280;35512;56.312;101.728;2023-01-08T13:36:25;95997.28;;;-8.92;83.36
45129;BME280;35512;56.312;101.728;2023-01-08T13:39:20;95986.56;;;-8.91;83.50
45129;BME280;35512;56.312;101.728;2023-01-08T13:45:03;95987.41;;;-8.85;83.46
45129;BME280;35512;56.312;101.728;2023-01-08T13:47:34;95977.50;;;-8.83;83.33
45129;BME280;35512;56.312;101.728;2023-01-08T13:50:15;95978.56;;;-8.79;83.31
45129;BME280;35512;56.312;101.728;2023-01-08T13:55:30;95984.34;;;-8.77;83.36
45129;BME280;35512;56.312;101.728;2023-01-08T13:58:04;95982.78;;;-8.78;83.73
45129;BME280;35512;56.312;101.728;2023-01-08T14:03:35;95973.16;;;-8.67;83.80
45129;BME280;35512;56.312;101.728;2023-01-08T14:06:21;95961.19;;;-8.58;83.81
45129;BME280;35512;56.312;101.728;2023-01-08T14:08:58;95969.84;;;-8.52;83.88
45129;BME280;35512;56.312;101.728;2023-01-08T14:11:30;95956.03;;;-8.47;84.02
45129;BME280;35512;56.312;101.728;2023-01-08T14:14:01;95956.56;;;-8.40;84.07
45129;BME280;35512;56.312;101.728;2023-01-08T14:16:30;95944.25;;;-8.45;83.84
45129;BME280;35512;56.312;101.728;2023-01-08T14:19:03;95955.56;;;-8.29;84.11
45129;BME280;35512;56.312;101.728;2023-01-08T14:21:33;95962.69;;;-8.24;83.97
45129;BME280;35512;56.312;101.728;2023-01-08T14:24:02;95940.38;;;-8.32;83.89
45129;BME280;35512;56.312;101.728;2023-01-08T14:26:33;95957.47;;;-8.19;83.83
45129;BME280;35512;56.312;101.728;2023-01-08T14:29:15;95946.75;;;-8.18;83.75
45129;BME280;35512;56.312;101.728;2023-01-08T14:31:51;95938.34;;;-8.20;83.84
45129;BME280;35512;56.312;101.728;2023-01-08T14:34:22;95945.97;;;-8.13;84.15